Accueil
METAR-TAF:

METAR-TAF

Aéroports :

Gloucester, Angleterre

Aéroport du Gloucestershire

latitude: 51-54N, longitude: 002-10W, altitude: 29 m

Observation

Le bulletin a été fait il y a 5 heures et 43 minutes, à 18:50 UTC
Vent 6 kt de est
Température 3°C
Humidité 65%
Pression 1019 hPa
Visibilité 10 km ou plus
Quelques nuages à une hauteur de 4800 ft

METAR: EGBJ 231850Z 08006KT 9999 FEW048 03/M03 Q1019

Heure: 00:33 (00:33 UTC)

Prévision

Le bulletin a été fait il y a 7 heures et 37 minutes, à 16:56 UTC
Prévision valable du 23 à 18 UTC au 23 à 20 UTC
Vent 8 kt de est
Visibilité 10 km ou plus
Quelques nuages à une hauteur de 3000 ft
Probabilité 30% :
Temporairement
du 23 à 18 UTC au 23 à 20 UTC
Visibilité: 8000 m

TAF: EGBJ 231656Z 2318/2320 09008KT 9999 FEW030 PROB30 TEMPO 2318/2320 8000

Observations et prévisions météorologiques de plus de 4000 aéroports (messages METAR et TAF).

Les stations disponibles sont représentées par des disques jaunes et rouges sur la carte.

Passer la souris dessus pour voir le nom de la station.

Cliquer dessus pour voir les observations et prévisions météorologiques.

Pour changer de carte: cliquez sur les boutons verts avec une croix noire pour zoomer, sur le bouton vert avec un tiret pour effectuer un zoom arrière, ou sur les flèches vertes pour les cartes adjacentes.


METAR-TAF: